sensor_id;sensor_type;location;lat;lon;timestamp;pressure;altitude;pressure_sealevel;temperature;humidity
36972;BME280;40554;52.122;20.678;2022-10-16T00:01:56;100519.07;;;14.49;86.62
36972;BME280;40554;52.122;20.678;2022-10-16T00:04:13;100517.24;;;14.49;86.60
36972;BME280;40554;52.122;20.678;2022-10-16T00:06:30;100519.07;;;14.49;86.58
36972;BME280;40554;52.122;20.678;2022-10-16T00:08:47;100515.06;;;14.49;86.57
36972;BME280;40554;52.122;20.678;2022-10-16T00:11:10;100516.40;;;14.49;86.55
36972;BME280;40554;52.122;20.678;2022-10-16T00:13:29;100520.05;;;14.48;86.53
36972;BME280;40554;52.122;20.678;2022-10-16T00:15:46;100523.70;;;14.47;86.48
36972;BME280;40554;52.122;20.678;2022-10-16T00:18:03;100518.37;;;14.47;86.48
36972;BME280;40554;52.122;20.678;2022-10-16T00:20:20;100518.37;;;14.47;86.47
36972;BME280;40554;52.122;20.678;2022-10-16T00:22:36;100519.70;;;14.47;86.46
36972;BME280;40554;52.122;20.678;2022-10-16T00:24:53;100521.88;;;14.47;86.50
36972;BME280;40554;52.122;20.678;2022-10-16T00:27:09;100519.22;;;14.47;86.52
36972;BME280;40554;52.122;20.678;2022-10-16T00:29:25;100517.39;;;14.48;86.56
36972;BME280;40554;52.122;20.678;2022-10-16T00:31:41;100530.73;;;14.48;86.64
36972;BME280;40554;52.122;20.678;2022-10-16T00:33:58;100534.38;;;14.47;86.80
36972;BME280;40554;52.122;20.678;2022-10-16T00:36:18;100528.17;;;14.46;86.96
36972;BME280;40554;52.122;20.678;2022-10-16T00:38:36;100524.06;;;14.48;87.06
36972;BME280;40554;52.122;20.678;2022-10-16T00:40:53;100514.38;;;14.47;87.25
36972;BME280;40554;52.122;20.678;2022-10-16T00:43:32;100521.50;;;14.46;87.37
36972;BME280;40554;52.122;20.678;2022-10-16T00:45:52;100523.33;;;14.46;87.45
36972;BME280;40554;52.122;20.678;2022-10-16T00:48:11;100522.48;;;14.45;87.45
36972;BME280;40554;52.122;20.678;2022-10-16T00:50:31;100515.93;;;14.44;87.45
36972;BME280;40554;52.122;20.678;2022-10-16T00:52:50;100516.31;;;14.45;87.41
36972;BME280;40554;52.122;20.678;2022-10-16T00:55:08;100518.14;;;14.44;87.41
36972;BME280;40554;52.122;20.678;2022-10-16T00:57:25;100524.31;;;14.45;87.36
36972;BME280;40554;52.122;20.678;2022-10-16T00:59:42;100523.94;;;14.44;87.26
36972;BME280;40554;52.122;20.678;2022-10-16T01:01:59;100520.31;;;14.45;87.22
36972;BME280;40554;52.122;20.678;2022-10-16T01:04:17;100521.64;;;14.45;87.13
36972;BME280;40554;52.122;20.678;2022-10-16T01:07:11;100521.76;;;14.43;86.99
36972;BME280;40554;52.122;20.678;2022-10-16T01:09:30;100531.94;;;14.44;86.93
36972;BME280;40554;52.122;20.678;2022-10-16T01:12:10;100533.77;;;14.43;86.80
36972;BME280;40554;52.122;20.678;2022-10-16T01:14:47;100539.25;;;14.41;86.80
36972;BME280;40554;52.122;20.678;2022-10-16T01:17:11;100540.92;;;14.43;86.79
36972;BME280;40554;52.122;20.678;2022-10-16T01:19:38;100541.04;;;14.41;86.86
36972;BME280;40554;52.122;20.678;2022-10-16T01:21:55;100548.58;;;14.41;86.91
36972;BME280;40554;52.122;20.678;2022-10-16T01:24:40;100549.53;;;14.40;86.94
36972;BME280;40554;52.122;20.678;2022-10-16T01:29:54;100559.48;;;14.38;86.85
36972;BME280;40554;52.122;20.678;2022-10-16T01:35:35;100563.63;;;14.37;86.84
36972;BME280;40554;52.122;20.678;2022-10-16T01:38:17;100561.45;;;14.36;86.80
36972;BME280;40554;52.122;20.678;2022-10-16T01:40:53;100556.11;;;14.36;86.80
36972;BME280;40554;52.122;20.678;2022-10-16T01:43:15;100550.53;;;14.34;86.75
36972;BME280;40554;52.122;20.678;2022-10-16T01:45:35;100558.05;;;14.34;86.71
36972;BME280;40554;52.122;20.678;2022-10-16T01:47:53;100557.31;;;14.32;86.71
36972;BME280;40554;52.122;20.678;2022-10-16T01:50:15;100549.92;;;14.30;86.72
36972;BME280;40554;52.122;20.678;2022-10-16T01:52:37;100548.23;;;14.29;86.74
36972;BME280;40554;52.122;20.678;2022-10-16T01:54:58;100546.90;;;14.29;86.78
36972;BME280;40554;52.122;20.678;2022-10-16T01:57:18;100543.50;;;14.27;86.87
36972;BME280;40554;52.122;20.678;2022-10-16T01:59:47;100542.31;;;14.26;86.96
36972;BME280;40554;52.122;20.678;2022-10-16T02:02:07;100540.59;;;14.25;87.03
36972;BME280;40554;52.122;20.678;2022-10-16T02:04:41;100535.41;;;14.23;87.04
36972;BME280;40554;52.122;20.678;2022-10-16T02:07:02;100539.02;;;14.22;87.03
36972;BME280;40554;52.122;20.678;2022-10-16T02:09:20;100535.27;;;14.19;87.03
36972;BME280;40554;52.122;20.678;2022-10-16T02:11:38;100537.95;;;14.19;87.01
36972;BME280;40554;52.122;20.678;2022-10-16T02:14:00;100537.59;;;14.18;86.95
36972;BME280;40554;52.122;20.678;2022-10-16T02:16:18;100539.03;;;14.16;86.99
36972;BME280;40554;52.122;20.678;2022-10-16T02:18:35;100538.09;;;14.17;87.00
36972;BME280;40554;52.122;20.678;2022-10-16T02:21:08;100540.38;;;14.16;86.96
36972;BME280;40554;52.122;20.678;2022-10-16T02:23:42;100542.20;;;14.16;86.96
36972;BME280;40554;52.122;20.678;2022-10-16T02:26:19;100542.20;;;14.16;86.93
36972;BME280;40554;52.122;20.678;2022-10-16T02:28:43;100544.86;;;14.16;86.90
36972;BME280;40554;52.122;20.678;2022-10-16T02:31:03;100547.67;;;14.14;86.86
36972;BME280;40554;52.122;20.678;2022-10-16T02:33:21;100548.27;;;14.12;86.81
36972;BME280;40554;52.122;20.678;2022-10-16T02:35:40;100558.45;;;14.13;86.83
36972;BME280;40554;52.122;20.678;2022-10-16T02:37:58;100554.09;;;14.12;86.85
36972;BME280;40554;52.122;20.678;2022-10-16T02:40:15;100561.25;;;14.11;86.85
36972;BME280;40554;52.122;20.678;2022-10-16T02:42:35;100556.77;;;14.12;86.86
36972;BME280;40554;52.122;20.678;2022-10-16T02:44:53;100555.55;;;14.10;86.88
36972;BME280;40554;52.122;20.678;2022-10-16T02:47:10;100564.77;;;14.12;86.84
36972;BME280;40554;52.122;20.678;2022-10-16T02:49:27;100559.69;;;14.09;86.82
36972;BME280;40554;52.122;20.678;2022-10-16T02:51:43;100561.47;;;14.08;86.83
36972;BME280;40554;52.122;20.678;2022-10-16T02:54:00;100558.95;;;14.07;86.85
36972;BME280;40554;52.122;20.678;2022-10-16T02:56:16;100565.23;;;14.06;86.84
36972;BME280;40554;52.122;20.678;2022-10-16T02:58:32;100566.22;;;14.05;86.88
36972;BME280;40554;52.122;20.678;2022-10-16T03:00:48;100564.88;;;14.05;86.90
36972;BME280;40554;52.122;20.678;2022-10-16T03:03:05;100574.11;;;14.06;86.95
36972;BME280;40554;52.122;20.678;2022-10-16T03:05:21;100571.55;;;14.05;86.90
36972;BME280;40554;52.122;20.678;2022-10-16T03:07:37;100568.88;;;14.05;86.95
36972;BME280;40554;52.122;20.678;2022-10-16T03:09:54;100576.53;;;14.04;86.95
36972;BME280;40554;52.122;20.678;2022-10-16T03:12:11;100565.48;;;14.03;86.98
36972;BME280;40554;52.122;20.678;2022-10-16T03:14:27;100575.66;;;14.03;86.99
36972;BME280;40554;52.122;20.678;2022-10-16T03:16:43;100575.66;;;14.03;87.06
36972;BME280;40554;52.122;20.678;2022-10-16T03:19:00;100581.12;;;14.02;87.04
36972;BME280;40554;52.122;20.678;2022-10-16T03:21:17;100578.46;;;14.02;87.06
36972;BME280;40554;52.122;20.678;2022-10-16T03:23:33;100579.06;;;14.00;87.07
36972;BME280;40554;52.122;20.678;2022-10-16T03:25:49;100579.06;;;14.00;87.04
36972;BME280;40554;52.122;20.678;2022-10-16T03:28:05;100588.29;;;13.95;87.02
36972;BME280;40554;52.122;20.678;2022-10-16T03:30:22;100579.56;;;13.93;87.03
36972;BME280;40554;52.122;20.678;2022-10-16T03:32:38;100586.47;;;13.90;87.08
36972;BME280;40554;52.122;20.678;2022-10-16T03:34:54;100593.24;;;13.89;87.16
36972;BME280;40554;52.122;20.678;2022-10-16T03:37:12;100587.55;;;13.88;87.26
36972;BME280;40554;52.122;20.678;2022-10-16T03:39:28;100591.55;;;13.88;87.37
36972;BME280;40554;52.122;20.678;2022-10-16T03:41:45;100588.05;;;13.87;87.47
36972;BME280;40554;52.122;20.678;2022-10-16T03:44:02;100589.38;;;13.87;87.58
36972;BME280;40554;52.122;20.678;2022-10-16T03:46:18;100596.99;;;13.86;87.60
36972;BME280;40554;52.122;20.678;2022-10-16T03:48:34;100597.38;;;13.87;87.69
36972;BME280;40554;52.122;20.678;2022-10-16T03:50:50;100600.16;;;13.86;87.70
36972;BME280;40554;52.122;20.678;2022-10-16T03:53:07;100601.23;;;13.83;87.70
36972;BME280;40554;52.122;20.678;2022-10-16T03:55:23;100598.92;;;13.79;87.68
36972;BME280;40554;52.122;20.678;2022-10-16T03:57:39;100605.97;;;13.74;87.69
36972;BME280;40554;52.122;20.678;2022-10-16T03:59:55;100601.83;;;13.70;87.74
36972;BME280;40554;52.122;20.678;2022-10-16T04:02:12;100606.07;;;13.67;87.77
36972;BME280;40554;52.122;20.678;2022-10-16T04:04:28;100605.58;;;13.62;87.81
36972;BME280;40554;52.122;20.678;2022-10-16T04:06:45;100603.64;;;13.58;87.86
36972;BME280;40554;52.122;20.678;2022-10-16T04:09:01;100600.84;;;13.54;87.94
36972;BME280;40554;52.122;20.678;2022-10-16T04:11:17;100594.55;;;13.49;87.98
36972;BME280;40554;52.122;20.678;2022-10-16T04:13:33;100606.04;;;13.44;87.97
36972;BME280;40554;52.122;20.678;2022-10-16T04:15:50;100608.95;;;13.41;88.05
36972;BME280;40554;52.122;20.678;2022-10-16T04:18:06;100616.44;;;13.36;88.09
36972;BME280;40554;52.122;20.678;2022-10-16T04:20:23;100617.27;;;13.31;88.18
36972;BME280;40554;52.122;20.678;2022-10-16T04:22:39;100622.93;;;13.26;88.21
36972;BME280;40554;52.122;20.678;2022-10-16T04:24:56;100626.39;;;13.21;88.23
36972;BME280;40554;52.122;20.678;2022-10-16T04:31:43;100640.39;;;13.06;88.65
36972;BME280;40554;52.122;20.678;2022-10-16T04:34:00;100629.72;;;13.01;88.70
36972;BME280;40554;52.122;20.678;2022-10-16T04:36:16;100631.02;;;12.95;88.81
36972;BME280;40554;52.122;20.678;2022-10-16T04:38:32;100632.43;;;12.88;88.89
36972;BME280;40554;52.122;20.678;2022-10-16T04:40:49;100629.00;;;12.80;89.05
36972;BME280;40554;52.122;20.678;2022-10-16T04:43:06;100629.95;;;12.74;89.19
36972;BME280;40554;52.122;20.678;2022-10-16T04:45:22;100624.70;;;12.67;89.34
36972;BME280;40554;52.122;20.678;2022-10-16T04:47:39;100631.80;;;12.60;89.50
36972;BME280;40554;52.122;20.678;2022-10-16T04:49:55;100636.95;;;12.56;89.66
36972;BME280;40554;52.122;20.678;2022-10-16T04:52:12;100643.58;;;12.51;89.80
36972;BME280;40554;52.122;20.678;2022-10-16T04:54:28;100641.27;;;12.46;89.97
36972;BME280;40554;52.122;20.678;2022-10-16T04:56:45;100651.39;;;12.41;90.13
36972;BME280;40554;52.122;20.678;2022-10-16T04:59:05;100643.38;;;12.35;90.21
36972;BME280;40554;52.122;20.678;2022-10-16T05:01:22;100651.09;;;12.33;90.41
36972;BME280;40554;52.122;20.678;2022-10-16T05:03:38;100655.75;;;12.29;90.59
36972;BME280;40554;52.122;20.678;2022-10-16T05:05:54;100659.12;;;12.26;90.76
36972;BME280;40554;52.122;20.678;2022-10-16T05:08:13;100657.91;;;12.24;91.03
36972;BME280;40554;52.122;20.678;2022-10-16T05:10:30;100658.59;;;12.20;91.06
36972;BME280;40554;52.122;20.678;2022-10-16T05:12:46;100659.17;;;12.18;91.39
36972;BME280;40554;52.122;20.678;2022-10-16T05:15:03;100660.36;;;12.14;91.56
36972;BME280;40554;52.122;20.678;2022-10-16T05:17:20;100659.25;;;12.11;91.75
36972;BME280;40554;52.122;20.678;2022-10-16T05:19:37;100652.92;;;12.07;91.99
36972;BME280;40554;52.122;20.678;2022-10-16T05:21:53;100652.30;;;12.03;92.17
36972;BME280;40554;52.122;20.678;2022-10-16T05:24:10;100646.23;;;12.01;92.49
36972;BME280;40554;52.122;20.678;2022-10-16T05:26:26;100644.76;;;11.97;92.78
36972;BME280;40554;52.122;20.678;2022-10-16T05:28:42;100644.95;;;11.94;92.99
36972;BME280;40554;52.122;20.678;2022-10-16T05:30:58;100649.06;;;11.92;93.22
36972;BME280;40554;52.122;20.678;2022-10-16T05:33:15;100659.78;;;11.91;93.45
36972;BME280;40554;52.122;20.678;2022-10-16T05:35:31;100660.39;;;11.89;93.65
36972;BME280;40554;52.122;20.678;2022-10-16T05:37:47;100660.48;;;11.87;93.83
36972;BME280;40554;52.122;20.678;2022-10-16T05:40:05;100659.64;;;11.87;94.13
36972;BME280;40554;52.122;20.678;2022-10-16T05:42:22;100654.12;;;11.83;94.46
36972;BME280;40554;52.122;20.678;2022-10-16T05:44:38;100660.13;;;11.86;94.65
36972;BME280;40554;52.122;20.678;2022-10-16T05:46:54;100655.66;;;11.87;94.97
36972;BME280;40554;52.122;20.678;2022-10-16T05:49:10;100662.78;;;11.86;95.28
36972;BME280;40554;52.122;20.678;2022-10-16T05:51:27;100660.13;;;11.86;95.49
36972;BME280;40554;52.122;20.678;2022-10-16T05:53:43;100661.33;;;11.88;95.79
36972;BME280;40554;52.122;20.678;2022-10-16T05:55:59;100661.72;;;11.89;96.05
36972;BME280;40554;52.122;20.678;2022-10-16T05:58:16;100667.75;;;11.91;96.17
36972;BME280;40554;52.122;20.678;2022-10-16T06:00:32;100670.41;;;11.91;96.44
36972;BME280;40554;52.122;20.678;2022-10-16T06:02:48;100677.80;;;11.93;96.63
36972;BME280;40554;52.122;20.678;2022-10-16T06:05:05;100681.22;;;11.95;96.86
36972;BME280;40554;52.122;20.678;2022-10-16T06:07:22;100679.19;;;11.98;97.11
36972;BME280;40554;52.122;20.678;2022-10-16T06:09:38;100683.61;;;12.05;97.42
36972;BME280;40554;52.122;20.678;2022-10-16T06:11:55;100684.02;;;12.12;97.62
36972;BME280;40554;52.122;20.678;2022-10-16T06:14:11;100685.30;;;12.19;97.83
36972;BME280;40554;52.122;20.678;2022-10-16T06:16:27;100688.15;;;12.29;98.09
36972;BME280;40554;52.122;20.678;2022-10-16T06:18:44;100691.11;;;12.37;98.33
36972;BME280;40554;52.122;20.678;2022-10-16T06:21:09;100694.08;;;12.45;98.42
36972;BME280;40554;52.122;20.678;2022-10-16T06:23:28;100697.04;;;12.53;98.49
36972;BME280;40554;52.122;20.678;2022-10-16T06:25:44;100689.97;;;12.59;98.52
36972;BME280;40554;52.122;20.678;2022-10-16T06:28:01;100691.34;;;12.65;98.59
36972;BME280;40554;52.122;20.678;2022-10-16T06:30:17;100687.84;;;12.70;98.65
36972;BME280;40554;52.122;20.678;2022-10-16T06:32:34;100693.32;;;12.74;98.62
36972;BME280;40554;52.122;20.678;2022-10-16T06:34:51;100694.33;;;12.79;98.69
36972;BME280;40554;52.122;20.678;2022-10-16T06:37:07;100701.86;;;12.85;98.76
36972;BME280;40554;52.122;20.678;2022-10-16T06:39:23;100694.87;;;12.90;98.79
36972;BME280;40554;52.122;20.678;2022-10-16T06:41:39;100694.91;;;12.95;98.86
36972;BME280;40554;52.122;20.678;2022-10-16T06:43:56;100695.78;;;13.01;98.96
36972;BME280;40554;52.122;20.678;2022-10-16T06:46:14;100702.36;;;13.08;99.01
36972;BME280;40554;52.122;20.678;2022-10-16T06:48:32;100704.33;;;13.18;99.11
36972;BME280;40554;52.122;20.678;2022-10-16T06:50:56;100712.25;;;13.25;99.10
36972;BME280;40554;52.122;20.678;2022-10-16T06:53:16;100706.84;;;13.32;99.15
36972;BME280;40554;52.122;20.678;2022-10-16T06:55:32;100713.42;;;13.39;99.10
36972;BME280;40554;52.122;20.678;2022-10-16T06:57:49;100713.93;;;13.44;99.07
36972;BME280;40554;52.122;20.678;2022-10-16T07:00:06;100717.10;;;13.49;99.00
36972;BME280;40554;52.122;20.678;2022-10-16T07:02:23;100708.39;;;13.53;98.98
36972;BME280;40554;52.122;20.678;2022-10-16T07:04:39;100707.66;;;13.57;98.96
36972;BME280;40554;52.122;20.678;2022-10-16T07:06:55;100707.42;;;13.60;98.97
36972;BME280;40554;52.122;20.678;2022-10-16T07:09:11;100701.27;;;13.65;99.00
36972;BME280;40554;52.122;20.678;2022-10-16T07:11:28;100689.78;;;13.70;98.97
36972;BME280;40554;52.122;20.678;2022-10-16T07:13:45;100687.61;;;13.75;98.91
36972;BME280;40554;52.122;20.678;2022-10-16T07:16:11;100695.27;;;13.80;98.90
36972;BME280;40554;52.122;20.678;2022-10-16T07:18:25;100717.58;;;13.84;99.00
36972;BME280;40554;52.122;20.678;2022-10-16T07:20:43;100720.12;;;13.91;99.08
36972;BME280;40554;52.122;20.678;2022-10-16T07:23:00;100725.95;;;13.96;99.13
36972;BME280;40554;52.122;20.678;2022-10-16T07:25:16;100718.80;;;14.03;99.06
36972;BME280;40554;52.122;20.678;2022-10-16T07:27:33;100723.30;;;14.08;98.96
36972;BME280;40554;52.122;20.678;2022-10-16T07:29:49;100728.14;;;14.14;98.95
36972;BME280;40554;52.122;20.678;2022-10-16T07:32:05;100728.29;;;14.24;98.98
36972;BME280;40554;52.122;20.678;2022-10-16T07:34:22;100720.53;;;14.37;99.13
36972;BME280;40554;52.122;20.678;2022-10-16T07:36:38;100717.42;;;14.55;99.21
36972;BME280;40554;52.122;20.678;2022-10-16T07:38:55;100706.58;;;14.73;99.28
36972;BME280;40554;52.122;20.678;2022-10-16T07:41:13;100704.37;;;14.90;98.97
36972;BME280;40554;52.122;20.678;2022-10-16T07:43:31;100704.95;;;15.04;98.72
36972;BME280;40554;52.122;20.678;2022-10-16T07:45:48;100707.47;;;15.17;98.52
36972;BME280;40554;52.122;20.678;2022-10-16T07:48:06;100711.30;;;15.30;98.26
36972;BME280;40554;52.122;20.678;2022-10-16T07:50:22;100712.11;;;15.42;98.11
36972;BME280;40554;52.122;20.678;2022-10-16T07:52:38;100710.72;;;15.53;97.91
36972;BME280;40554;52.122;20.678;2022-10-16T07:54:54;100728.53;;;15.64;97.71
36972;BME280;40554;52.122;20.678;2022-10-16T07:57:11;100732.37;;;15.77;97.43
36972;BME280;40554;52.122;20.678;2022-10-16T07:59:27;100735.00;;;15.88;97.18
36972;BME280;40554;52.122;20.678;2022-10-16T08:01:43;100739.17;;;16.02;96.92
36972;BME280;40554;52.122;20.678;2022-10-16T08:04:00;100739.82;;;16.15;96.57
36972;BME280;40554;52.122;20.678;2022-10-16T08:06:17;100742.09;;;16.35;96.34
36972;BME280;40554;52.122;20.678;2022-10-16T08:08:34;100742.01;;;16.61;96.15
36972;BME280;40554;52.122;20.678;2022-10-16T08:10:51;100743.73;;;16.72;95.39
36972;BME280;40554;52.122;20.678;2022-10-16T08:13:07;100739.70;;;16.78;94.78
36972;BME280;40554;52.122;20.678;2022-10-16T08:15:23;100750.36;;;16.83;94.39
36972;BME280;40554;52.122;20.678;2022-10-16T08:17:40;100755.28;;;16.88;94.09
36972;BME280;40554;52.122;20.678;2022-10-16T08:19:56;100754.39;;;16.93;93.84
36972;BME280;40554;52.122;20.678;2022-10-16T08:22:13;100760.56;;;16.99;93.60
36972;BME280;40554;52.122;20.678;2022-10-16T08:24:30;100759.84;;;17.07;93.46
36972;BME280;40554;52.122;20.678;2022-10-16T08:26:47;100765.11;;;17.18;93.50
36972;BME280;40554;52.122;20.678;2022-10-16T08:29:03;100760.53;;;17.24;93.06
36972;BME280;40554;52.122;20.678;2022-10-16T08:31:19;100762.86;;;17.33;92.74
36972;BME280;40554;52.122;20.678;2022-10-16T08:33:36;100756.47;;;17.40;92.28
36972;BME280;40554;52.122;20.678;2022-10-16T08:35:53;100751.03;;;17.45;92.08
36972;BME280;40554;52.122;20.678;2022-10-16T08:38:09;100752.15;;;17.53;92.00
36972;BME280;40554;52.122;20.678;2022-10-16T08:40:28;100758.16;;;17.60;91.50
36972;BME280;40554;52.122;20.678;2022-10-16T08:45:18;100762.44;;;17.67;90.80
36972;BME280;40554;52.122;20.678;2022-10-16T08:47:46;100764.87;;;17.70;90.45
36972;BME280;40554;52.122;20.678;2022-10-16T08:50:13;100770.91;;;17.72;90.20
36972;BME280;40554;52.122;20.678;2022-10-16T08:52:34;100777.20;;;17.77;89.86
36972;BME280;40554;52.122;20.678;2022-10-16T08:54:55;100788.52;;;17.80;89.63
36972;BME280;40554;52.122;20.678;2022-10-16T08:57:15;100797.19;;;17.78;89.10
36972;BME280;40554;52.122;20.678;2022-10-16T08:59:38;100794.52;;;17.78;88.87
36972;BME280;40554;52.122;20.678;2022-10-16T09:01:55;100792.30;;;17.78;88.71
36972;BME280;40554;52.122;20.678;2022-10-16T09:07:28;100777.08;;;17.78;88.36
36972;BME280;40554;52.122;20.678;2022-10-16T09:12:46;100769.83;;;17.84;88.04
36972;BME280;40554;52.122;20.678;2022-10-16T09:15:22;100769.53;;;17.87;87.79
36972;BME280;40554;52.122;20.678;2022-10-16T09:20:14;100774.98;;;17.91;87.32
36972;BME280;40554;52.122;20.678;2022-10-16T09:22:44;100774.69;;;17.94;87.11
36972;BME280;40554;52.122;20.678;2022-10-16T09:25:19;100779.14;;;18.00;86.87
36972;BME280;40554;52.122;20.678;2022-10-16T09:27:38;100779.06;;;18.05;86.84
36972;BME280;40554;52.122;20.678;2022-10-16T09:29:55;100780.66;;;18.12;86.53
36972;BME280;40554;52.122;20.678;2022-10-16T09:32:17;100773.52;;;18.16;86.24
36972;BME280;40554;52.122;20.678;2022-10-16T09:34:43;100778.81;;;18.22;86.06
36972;BME280;40554;52.122;20.678;2022-10-16T09:37:12;100771.30;;;18.26;85.68
36972;BME280;40554;52.122;20.678;2022-10-16T09:39:30;100769.95;;;18.26;85.29
36972;BME280;40554;52.122;20.678;2022-10-16T09:41:51;100773.19;;;18.29;85.13
36972;BME280;40554;52.122;20.678;2022-10-16T09:47:00;100771.50;;;18.38;84.80
36972;BME280;40554;52.122;20.678;2022-10-16T09:49:24;100778.33;;;18.46;84.59
36972;BME280;40554;52.122;20.678;2022-10-16T09:51:42;100777.43;;;18.55;84.53
36972;BME280;40554;52.122;20.678;2022-10-16T09:56:30;100782.88;;;18.73;84.05
36972;BME280;40554;52.122;20.678;2022-10-16T09:58:53;100783.16;;;18.80;83.58
36972;BME280;40554;52.122;20.678;2022-10-16T10:01:14;100784.87;;;18.81;82.87
36972;BME280;40554;52.122;20.678;2022-10-16T10:03:42;100784.40;;;18.86;82.84
36972;BME280;40554;52.122;20.678;2022-10-16T10:09:20;100793.91;;;18.94;82.35
36972;BME280;40554;52.122;20.678;2022-10-16T10:11:15;100787.25;;;18.98;82.01
36972;BME280;40554;52.122;20.678;2022-10-16T10:13:33;100782.31;;;19.07;82.07
36972;BME280;40554;52.122;20.678;2022-10-16T10:15:51;100776.33;;;19.13;81.94
36972;BME280;40554;52.122;20.678;2022-10-16T10:18:18;100773.50;;;19.15;81.43
36972;BME280;40554;52.122;20.678;2022-10-16T10:20:38;100769.89;;;19.24;81.49
36972;BME280;40554;52.122;20.678;2022-10-16T10:22:57;100773.88;;;19.34;81.30
36972;BME280;40554;52.122;20.678;2022-10-16T10:30:27;100771.02;;;19.49;80.24
36972;BME280;40554;52.122;20.678;2022-10-16T10:38:47;100768.03;;;19.56;79.18
36972;BME280;40554;52.122;20.678;2022-10-16T10:44:25;100765.98;;;19.54;79.18
36972;BME280;40554;52.122;20.678;2022-10-16T10:46:50;100764.17;;;19.55;78.70
36972;BME280;40554;52.122;20.678;2022-10-16T10:49:48;100764.81;;;19.53;78.77
36972;BME280;40554;52.122;20.678;2022-10-16T10:52:39;100759.45;;;19.57;78.88
36972;BME280;40554;52.122;20.678;2022-10-16T10:55:02;100761.55;;;19.63;78.84
36972;BME280;40554;52.122;20.678;2022-10-16T10:57:51;100754.33;;;19.63;78.49
36972;BME280;40554;52.122;20.678;2022-10-16T11:08:52;100750.29;;;19.63;77.83
36972;BME280;40554;52.122;20.678;2022-10-16T11:11:26;100761.10;;;19.67;77.85
36972;BME280;40554;52.122;20.678;2022-10-16T11:16:20;100762.52;;;19.76;77.60
36972;BME280;40554;52.122;20.678;2022-10-16T11:18:45;100763.91;;;19.80;77.57
36972;BME280;40554;52.122;20.678;2022-10-16T11:21:11;100767.68;;;19.87;77.59
36972;BME280;40554;52.122;20.678;2022-10-16T11:26:02;100759.17;;;19.96;77.06
36972;BME280;40554;52.122;20.678;2022-10-16T11:28:44;100758.52;;;19.98;76.78
36972;BME280;40554;52.122;20.678;2022-10-16T11:31:17;100755.65;;;19.99;76.60
36972;BME280;40554;52.122;20.678;2022-10-16T11:34:09;100760.06;;;20.04;76.54
36972;BME280;40554;52.122;20.678;2022-10-16T11:36:41;100759.73;;;20.03;76.13
36972;BME280;40554;52.122;20.678;2022-10-16T11:39:20;100756.22;;;20.07;76.16
36972;BME280;40554;52.122;20.678;2022-10-16T11:47:38;100758.18;;;20.23;75.79
36972;BME280;40554;52.122;20.678;2022-10-16T11:55:41;100742.08;;;20.35;74.92
36972;BME280;40554;52.122;20.678;2022-10-16T11:58:03;100748.85;;;20.39;74.72
36972;BME280;40554;52.122;20.678;2022-10-16T12:00:26;100751.55;;;20.43;74.64
36972;BME280;40554;52.122;20.678;2022-10-16T12:02:54;100756.80;;;20.49;74.57
36972;BME280;40554;52.122;20.678;2022-10-16T12:08:19;100758.33;;;20.51;73.98
36972;BME280;40554;52.122;20.678;2022-10-16T12:10:38;100761.70;;;20.49;73.56
36972;BME280;40554;52.122;20.678;2022-10-16T12:12:56;100761.02;;;20.47;73.46
36972;BME280;40554;52.122;20.678;2022-10-16T12:15:21;100765.05;;;20.47;73.53
36972;BME280;40554;52.122;20.678;2022-10-16T12:17:39;100757.81;;;20.48;73.51
36972;BME280;40554;52.122;20.678;2022-10-16T12:23:02;100761.09;;;20.55;73.23
36972;BME280;40554;52.122;20.678;2022-10-16T12:25:31;100763.47;;;20.63;73.35
36972;BME280;40554;52.122;20.678;2022-10-16T12:30:37;100764.23;;;20.81;73.05
36972;BME280;40554;52.122;20.678;2022-10-16T12:32:59;100765.61;;;20.85;72.74
36972;BME280;40554;52.122;20.678;2022-10-16T12:35:26;100764.91;;;20.87;72.71
36972;BME280;40554;52.122;20.678;2022-10-16T12:37:47;100763.45;;;20.93;72.73
36972;BME280;40554;52.122;20.678;2022-10-16T12:40:27;100769.53;;;21.03;72.66
36972;BME280;40554;52.122;20.678;2022-10-16T12:42:44;100770.73;;;21.09;72.52
36972;BME280;40554;52.122;20.678;2022-10-16T12:45:01;100770.56;;;21.14;72.45
36972;BME280;40554;52.122;20.678;2022-10-16T12:49:54;100768.41;;;21.18;71.95
36972;BME280;40554;52.122;20.678;2022-10-16T12:54:58;100775.48;;;21.15;71.72
36972;BME280;40554;52.122;20.678;2022-10-16T13:00:26;100775.13;;;21.14;71.59
36972;BME280;40554;52.122;20.678;2022-10-16T13:03:38;100767.39;;;21.15;71.46
36972;BME280;40554;52.122;20.678;2022-10-16T13:06:08;100764.67;;;21.11;71.08
36972;BME280;40554;52.122;20.678;2022-10-16T13:08:34;100772.22;;;21.03;71.17
36972;BME280;40554;52.122;20.678;2022-10-16T13:13:46;100784.00;;;20.94;71.09
36972;BME280;40554;52.122;20.678;2022-10-16T13:18:59;100796.24;;;20.80;71.01
36972;BME280;40554;52.122;20.678;2022-10-16T13:21:24;100789.10;;;20.71;70.98
36972;BME280;40554;52.122;20.678;2022-10-16T13:24:38;100796.84;;;20.66;71.10
36972;BME280;40554;52.122;20.678;2022-10-16T13:29:14;100796.77;;;20.53;71.13
36972;BME280;40554;52.122;20.678;2022-10-16T13:31:30;100807.84;;;20.50;71.31
36972;BME280;40554;52.122;20.678;2022-10-16T13:33:52;100805.80;;;20.48;71.37
36972;BME280;40554;52.122;20.678;2022-10-16T13:36:24;100799.05;;;20.44;71.41
36972;BME280;40554;52.122;20.678;2022-10-16T13:38:42;100798.36;;;20.42;71.44
36972;BME280;40554;52.122;20.678;2022-10-16T13:41:04;100796.68;;;20.41;71.54